createdAt,value
2022-08-14T00:00:08.192Z,1.38
2022-08-14T00:03:19.107Z,1.15
2022-08-14T00:06:28.535Z,1.40
2022-08-14T00:09:32.957Z,1.20
2022-08-14T00:12:43.170Z,1.27
2022-08-14T00:15:51.471Z,1.10
2022-08-14T00:19:06.142Z,1.13
2022-08-14T00:22:44.404Z,1.50
2022-08-14T00:25:42.321Z,1.27
2022-08-14T00:31:47.629Z,1.25
2022-08-14T00:35:01.211Z,1.70
2022-08-14T00:38:02.752Z,1.25
2022-08-14T00:41:10.943Z,1.60
2022-08-14T00:47:17.266Z,1.55
2022-08-14T00:50:21.905Z,1.38
2022-08-14T00:53:25.387Z,1.58
2022-08-14T00:56:31.345Z,1.63
2022-08-14T00:59:33.041Z,1.33
2022-08-14T01:02:36.341Z,1.45
2022-08-14T01:08:58.192Z,1.60
2022-08-14T01:12:03.578Z,1.73
2022-08-14T01:15:05.599Z,1.60
2022-08-14T01:18:30.552Z,1.80
2022-08-14T01:21:38.837Z,1.55
2022-08-14T01:24:50.775Z,1.60
2022-08-14T01:27:57.727Z,1.60
2022-08-14T01:31:00.345Z,1.67
2022-08-14T01:35:17.904Z,1.58
2022-08-14T01:37:28.777Z,1.70
2022-08-14T01:40:36.551Z,1.65
2022-08-14T01:43:56.352Z,1.50
2022-08-14T01:47:01.207Z,1.60
2022-08-14T01:50:03.299Z,2.10
2022-08-14T01:53:04.930Z,1.75
2022-08-14T01:56:12.074Z,1.50
2022-08-14T01:59:31.713Z,1.90
2022-08-14T02:02:39.838Z,1.75
2022-08-14T02:05:41.450Z,1.63
2022-08-14T02:08:52.569Z,1.67
2022-08-14T02:11:56.555Z,1.50
2022-08-14T02:15:01.180Z,1.70
2022-08-14T02:18:04.260Z,1.42
2022-08-14T02:21:06.259Z,2.00
2022-08-14T02:24:09.402Z,2.03
2022-08-14T02:28:23.038Z,1.80
2022-08-14T02:30:52.382Z,1.90
2022-08-14T02:33:54.906Z,2.05
2022-08-14T02:37:06.916Z,2.08
2022-08-14T02:40:09.224Z,1.63
2022-08-14T02:43:11.742Z,1.80
2022-08-14T02:46:13.496Z,2.20
2022-08-14T02:49:27.395Z,1.77
2022-08-14T02:52:57.067Z,1.77
2022-08-14T02:56:02.664Z,1.85
2022-08-14T02:59:07.756Z,1.70
2022-08-14T03:02:33.517Z,2.05
2022-08-14T03:05:35.954Z,2.20
2022-08-14T03:08:39.073Z,1.85
2022-08-14T03:11:47.597Z,1.88
2022-08-14T03:14:52.019Z,1.50
2022-08-14T03:17:56.863Z,1.80
2022-08-14T03:21:07.556Z,2.00
2022-08-14T03:24:16.363Z,2.30
2022-08-14T03:27:22.989Z,1.63
2022-08-14T03:30:38.890Z,1.77
2022-08-14T03:33:43.595Z,2.10
2022-08-14T03:37:28.666Z,2.10
2022-08-14T03:40:11.424Z,1.77
2022-08-14T03:43:19.736Z,2.22
2022-08-14T03:46:52.942Z,2.13
2022-08-14T03:49:49.778Z,2.00
2022-08-14T03:52:55.992Z,1.95
2022-08-14T03:55:59.145Z,1.90
2022-08-14T03:59:17.859Z,1.88
2022-08-14T04:02:32.655Z,2.00
2022-08-14T04:05:42.842Z,2.17
2022-08-14T04:08:50.060Z,2.03
2022-08-14T04:11:51.549Z,2.13
2022-08-14T04:14:53.110Z,2.47
2022-08-14T04:17:55.073Z,2.20
2022-08-14T04:20:58.674Z,2.13
2022-08-14T04:24:01.713Z,2.40
2022-08-14T04:27:03.334Z,2.33
2022-08-14T04:30:06.037Z,1.77
2022-08-14T04:33:17.132Z,1.92
2022-08-14T04:36:21.986Z,2.17
2022-08-14T04:39:46.339Z,2.40
2022-08-14T04:43:07.039Z,2.30
2022-08-14T04:46:55.772Z,2.30
2022-08-14T04:49:56.712Z,2.38
2022-08-14T04:52:59.205Z,2.13
2022-08-14T04:56:05.806Z,2.03
2022-08-14T04:59:12.639Z,2.50
2022-08-14T05:02:16.563Z,2.03
2022-08-14T05:05:20.837Z,2.40
2022-08-14T05:08:32.313Z,2.03
2022-08-14T05:11:45.478Z,2.40
2022-08-14T05:14:54.968Z,2.45
2022-08-14T05:18:03.750Z,2.22
2022-08-14T05:21:59.559Z,2.13
2022-08-14T05:24:40.542Z,2.22
2022-08-14T05:27:42.425Z,2.58
2022-08-14T05:30:44.484Z,2.28
2022-08-14T05:33:46.708Z,2.53
2022-08-14T05:37:01.872Z,2.72
2022-08-14T05:40:04.567Z,2.47
2022-08-14T05:43:06.830Z,2.40
2022-08-14T05:46:15.048Z,2.60
2022-08-14T05:49:17.068Z,2.28
2022-08-14T05:52:26.404Z,2.50
2022-08-14T05:55:44.379Z,2.08
2022-08-14T05:58:46.515Z,2.47
2022-08-14T06:01:47.958Z,2.42
2022-08-14T06:04:52.502Z,2.10
2022-08-14T06:07:54.114Z,2.25
2022-08-14T06:11:05.584Z,2.50
2022-08-14T06:14:12.443Z,2.75
2022-08-14T06:17:25.630Z,2.50
2022-08-14T06:20:28.615Z,2.55
2022-08-14T06:23:31.715Z,2.38
2022-08-14T06:26:33.170Z,2.40
2022-08-14T06:29:37.268Z,2.28
2022-08-14T06:32:42.202Z,2.30
2022-08-14T06:35:44.584Z,2.40
2022-08-14T06:38:50.225Z,2.60
2022-08-14T06:41:57.971Z,2.13
2022-08-14T06:45:01.385Z,2.28
2022-08-14T06:48:06.237Z,2.28
2022-08-14T06:51:14.021Z,2.25
2022-08-14T06:54:15.519Z,2.08
2022-08-14T06:57:17.889Z,2.25
2022-08-14T07:00:26.981Z,2.30
2022-08-14T07:03:48.699Z,2.42
2022-08-14T07:06:55.554Z,2.00
2022-08-14T07:10:00.632Z,2.50
2022-08-14T07:13:04.181Z,2.50
2022-08-14T07:16:06.254Z,2.20
2022-08-14T07:19:09.803Z,2.55
2022-08-14T07:22:20.288Z,2.30
2022-08-14T07:25:22.095Z,2.15
2022-08-14T07:28:43.393Z,2.38
2022-08-14T07:31:46.460Z,1.90
2022-08-14T07:34:48.741Z,2.22
2022-08-14T07:37:52.594Z,1.90
2022-08-14T07:40:54.468Z,1.92
2022-08-14T07:43:57.843Z,1.85
2022-08-14T07:46:59.369Z,2.55
2022-08-14T07:50:03.574Z,1.98
2022-08-14T07:53:06.760Z,1.98
2022-08-14T07:56:43.767Z,2.35
2022-08-14T07:59:42.182Z,2.15
2022-08-14T08:02:50.536Z,2.17
2022-08-14T08:05:57.781Z,2.22
2022-08-14T08:09:01.143Z,2.30
2022-08-14T08:12:09.340Z,2.20
2022-08-14T08:15:17.980Z,2.17
2022-08-14T08:18:29.443Z,1.80
2022-08-14T08:21:33.230Z,2.10
2022-08-14T08:24:37.062Z,2.17
2022-08-14T08:27:38.898Z,2.10
2022-08-14T08:30:57.946Z,2.10
2022-08-14T08:34:05.284Z,1.90
2022-08-14T08:37:08.718Z,2.20
2022-08-14T08:40:11.481Z,1.83
2022-08-14T08:43:23.882Z,2.22
2022-08-14T08:46:26.134Z,2.30
2022-08-14T08:49:52.676Z,2.25
2022-08-14T08:53:06.428Z,2.22
2022-08-14T08:56:07.923Z,2.25
2022-08-14T08:59:31.669Z,2.25
2022-08-14T09:02:35.628Z,2.03
2022-08-14T09:05:49.998Z,1.80
2022-08-14T09:08:55.906Z,2.00
2022-08-14T09:12:00.129Z,1.90
2022-08-14T09:15:11.824Z,1.80
2022-08-14T09:18:16.515Z,2.10
2022-08-14T09:21:21.063Z,1.74
2022-08-14T09:24:31.646Z,1.65
2022-08-14T09:27:38.189Z,1.80
2022-08-14T09:30:54.280Z,1.90
2022-08-14T09:34:00.903Z,1.70
2022-08-14T09:37:20.062Z,1.60
2022-08-14T09:40:43.086Z,1.63
2022-08-14T09:44:05.254Z,1.60
2022-08-14T09:47:10.647Z,1.55
2022-08-14T09:50:20.546Z,1.80
2022-08-14T09:54:19.693Z,1.50
2022-08-14T09:56:57.298Z,1.58
2022-08-14T10:00:29.381Z,1.80
2022-08-14T10:03:35.279Z,1.50
2022-08-14T10:06:46.631Z,1.80
2022-08-14T10:09:59.943Z,1.65
2022-08-14T10:13:06.174Z,1.80
2022-08-14T10:16:08.857Z,1.60
2022-08-14T10:19:28.702Z,1.60
2022-08-14T10:23:12.484Z,1.40
2022-08-14T10:26:05.223Z,1.45
2022-08-14T10:29:19.379Z,1.48
2022-08-14T10:32:36.145Z,1.50
2022-08-14T10:35:48.225Z,1.23
2022-08-14T10:38:57.875Z,1.60
2022-08-14T10:42:21.032Z,1.50
2022-08-14T10:45:24.395Z,1.58
2022-08-14T10:48:37.068Z,1.60
2022-08-14T10:51:42.485Z,1.88
2022-08-14T10:54:47.424Z,1.55
2022-08-14T10:57:53.683Z,1.60
2022-08-14T11:00:58.046Z,1.60
2022-08-14T11:04:00.215Z,1.65
2022-08-14T11:07:02.186Z,1.42
2022-08-14T11:10:09.597Z,1.40
2022-08-14T11:13:21.367Z,1.40
2022-08-14T11:16:26.910Z,1.42
2022-08-14T11:19:33.479Z,1.30
2022-08-14T11:23:03.470Z,1.33
2022-08-14T11:26:03.241Z,1.30
2022-08-14T11:29:10.394Z,1.48
2022-08-14T11:32:12.202Z,1.13
2022-08-14T11:35:16.068Z,1.55
2022-08-14T11:38:20.041Z,1.45
2022-08-14T11:41:21.790Z,1.15
2022-08-14T11:44:45.034Z,1.20
2022-08-14T11:48:13.532Z,1.20
2022-08-14T11:51:14.613Z,1.17
2022-08-14T11:54:19.880Z,1.33
2022-08-14T12:00:31.711Z,1.23
2022-08-14T12:03:51.445Z,0.93
2022-08-14T12:06:55.878Z,0.95
2022-08-14T12:09:57.372Z,1.17
2022-08-14T12:12:58.977Z,0.90
2022-08-14T12:16:20.438Z,1.20
2022-08-14T12:19:22.527Z,1.20
2022-08-14T12:22:37.638Z,1.05
2022-08-14T12:25:45.383Z,1.30
2022-08-14T12:29:16.596Z,1.17
2022-08-14T12:32:18.316Z,1.20
2022-08-14T12:35:19.812Z,1.08
2022-08-14T12:38:43.594Z,1.10
2022-08-14T12:42:07.274Z,1.30
2022-08-14T12:45:16.625Z,1.20
2022-08-14T12:48:21.092Z,1.10
2022-08-14T12:51:33.548Z,1.20
2022-08-14T12:54:35.083Z,1.30
2022-08-14T12:57:47.757Z,1.10
2022-08-14T13:01:14.279Z,1.40
2022-08-14T13:04:15.332Z,1.17
2022-08-14T13:07:16.970Z,1.10
2022-08-14T13:10:47.101Z,1.23
2022-08-14T13:13:44.808Z,1.05
2022-08-14T13:16:50.575Z,1.30
2022-08-14T13:19:55.370Z,0.90
2022-08-14T13:22:57.882Z,1.20
2022-08-14T13:26:02.886Z,1.30
2022-08-14T13:29:06.210Z,1.25
2022-08-14T13:32:13.596Z,1.25
2022-08-14T13:35:17.687Z,1.23
2022-08-14T13:38:21.627Z,1.23
2022-08-14T13:41:31.473Z,1.10
2022-08-14T13:44:35.028Z,1.30
2022-08-14T13:50:41.352Z,1.42
2022-08-14T13:54:06.955Z,1.10
2022-08-14T13:57:12.525Z,1.40
2022-08-14T14:00:15.325Z,1.40
2022-08-14T14:03:21.922Z,1.40
2022-08-14T14:06:24.858Z,1.15
2022-08-14T14:09:37.742Z,1.20
2022-08-14T14:12:56.095Z,1.20
2022-08-14T14:16:00.795Z,1.20
2022-08-14T14:19:10.538Z,1.25
2022-08-14T14:25:43.235Z,1.20
2022-08-14T14:29:01.622Z,1.20
2022-08-14T14:32:04.160Z,1.30
2022-08-14T14:35:11.504Z,1.00
2022-08-14T14:38:15.283Z,1.30
2022-08-14T14:41:22.366Z,1.13
2022-08-14T14:44:32.944Z,1.10
2022-08-14T14:47:35.015Z,1.17
2022-08-14T14:50:40.140Z,1.40
2022-08-14T14:53:45.024Z,1.08
2022-08-14T14:56:51.562Z,1.25
2022-08-14T14:59:53.788Z,0.95
2022-08-14T15:02:57.744Z,1.20
2022-08-14T15:06:01.569Z,1.10
2022-08-14T15:09:05.434Z,1.20
2022-08-14T15:12:34.753Z,1.08
2022-08-14T15:15:37.283Z,1.10
2022-08-14T15:18:46.458Z,1.27
2022-08-14T15:21:50.850Z,1.10
2022-08-14T15:24:52.809Z,1.20
2022-08-14T15:27:54.958Z,1.25
2022-08-14T15:30:59.005Z,1.25
2022-08-14T15:34:43.693Z,0.95
2022-08-14T15:37:36.750Z,1.10
2022-08-14T15:40:44.018Z,1.20
2022-08-14T15:43:54.182Z,0.90
2022-08-14T15:46:59.666Z,1.00
2022-08-14T15:50:08.636Z,0.90
2022-08-14T15:53:11.997Z,1.00
2022-08-14T15:56:20.862Z,1.17
2022-08-14T15:59:56.843Z,1.10
2022-08-14T16:03:00.751Z,1.10
2022-08-14T16:06:04.504Z,1.10
2022-08-14T16:09:11.061Z,1.40
2022-08-14T16:12:12.953Z,1.13
2022-08-14T16:15:16.952Z,0.93
2022-08-14T16:18:20.114Z,1.15
2022-08-14T16:21:22.966Z,1.15
2022-08-14T16:24:26.920Z,1.10
2022-08-14T16:27:39.678Z,1.00
2022-08-14T16:30:48.653Z,1.10
2022-08-14T16:33:59.686Z,1.23
2022-08-14T16:37:03.098Z,1.35
2022-08-14T16:40:05.300Z,1.20
2022-08-14T16:43:13.591Z,1.15
2022-08-14T16:46:22.264Z,1.33
2022-08-14T16:49:26.100Z,0.93
2022-08-14T16:52:54.676Z,1.10
2022-08-14T16:56:23.496Z,1.00
2022-08-14T16:59:30.315Z,0.95
2022-08-14T17:02:36.763Z,1.17
2022-08-14T17:05:46.572Z,1.50
2022-08-14T17:08:48.606Z,1.20
2022-08-14T17:11:56.921Z,0.93
2022-08-14T17:15:10.607Z,1.13
2022-08-14T17:18:14.820Z,1.30
2022-08-14T17:21:19.375Z,4.60
2022-08-14T17:24:57.230Z,3.92
2022-08-14T17:27:48.192Z,6.28
2022-08-14T17:30:57.102Z,1.52
2022-08-14T17:33:59.300Z,2.50
2022-08-14T17:37:02.537Z,1.50
2022-08-14T17:40:15.055Z,1.25
2022-08-14T17:43:17.681Z,1.23
2022-08-14T17:46:43.942Z,1.08
2022-08-14T17:49:52.268Z,1.10
2022-08-14T17:52:54.162Z,1.02
2022-08-14T17:56:01.252Z,1.20
2022-08-14T17:59:06.199Z,1.00
2022-08-14T18:02:11.434Z,1.08
2022-08-14T18:05:23.659Z,1.08
2022-08-14T18:08:41.990Z,1.10
2022-08-14T18:11:45.895Z,1.20
2022-08-14T18:14:52.755Z,1.23
2022-08-14T18:17:54.843Z,1.50
2022-08-14T18:21:40.782Z,1.35
2022-08-14T18:24:29.465Z,1.20
2022-08-14T18:27:37.422Z,1.20
2022-08-14T18:30:58.221Z,1.10
2022-08-14T18:34:11.748Z,1.38
2022-08-14T18:37:20.598Z,1.02
2022-08-14T18:40:22.852Z,1.30
2022-08-14T18:43:42.068Z,1.00
2022-08-14T18:47:19.661Z,1.15
2022-08-14T18:50:31.000Z,1.00
2022-08-14T18:53:57.074Z,0.98
2022-08-14T18:57:00.284Z,1.42
2022-08-14T19:00:33.433Z,1.23
2022-08-14T19:03:36.507Z,1.10
2022-08-14T19:06:55.745Z,1.05
2022-08-14T19:10:07.865Z,1.05
2022-08-14T19:13:12.381Z,1.10
2022-08-14T19:16:23.063Z,1.10
2022-08-14T19:19:38.372Z,1.00
2022-08-14T19:22:41.485Z,1.10
2022-08-14T19:28:53.399Z,1.45
2022-08-14T19:32:02.471Z,1.20
2022-08-14T19:35:55.974Z,1.50
2022-08-14T19:38:57.457Z,1.40
2022-08-14T19:41:59.253Z,1.05
2022-08-14T19:45:01.069Z,1.30
2022-08-14T19:48:13.154Z,1.23
2022-08-14T19:51:15.840Z,1.27
2022-08-14T19:54:18.075Z,1.30
2022-08-14T19:57:31.203Z,1.38
2022-08-14T20:00:33.315Z,1.17
2022-08-14T20:04:00.072Z,1.30
2022-08-14T20:07:04.262Z,1.20
2022-08-14T20:11:08.125Z,1.30
2022-08-14T20:13:45.779Z,1.13
2022-08-14T20:16:54.360Z,1.30
2022-08-14T20:19:56.146Z,1.20
2022-08-14T20:22:57.802Z,1.30
2022-08-14T20:26:03.464Z,1.40
2022-08-14T20:29:07.156Z,1.30
2022-08-14T20:32:14.777Z,1.52
2022-08-14T20:35:41.778Z,1.38
2022-08-14T20:38:43.459Z,1.48
2022-08-14T20:42:13.967Z,1.40
2022-08-14T20:45:24.304Z,1.40
2022-08-14T20:48:51.207Z,1.50
2022-08-14T20:52:00.204Z,1.25
2022-08-14T20:55:29.022Z,1.50
2022-08-14T20:58:41.926Z,1.42
2022-08-14T21:01:58.883Z,1.45
2022-08-14T21:05:16.743Z,1.13
2022-08-14T21:08:22.630Z,1.00
2022-08-14T21:11:28.539Z,1.30
2022-08-14T21:14:30.064Z,1.08
2022-08-14T21:17:32.034Z,0.77
2022-08-14T21:20:40.156Z,0.77
2022-08-14T21:23:55.149Z,1.20
2022-08-14T21:27:04.396Z,1.13
2022-08-14T21:30:16.541Z,1.05
2022-08-14T21:33:22.947Z,1.10
2022-08-14T21:36:24.927Z,1.08
2022-08-14T21:39:33.079Z,1.08
2022-08-14T21:42:34.542Z,1.33
2022-08-14T21:45:38.921Z,1.10
2022-08-14T21:48:44.385Z,1.00
2022-08-14T21:51:53.706Z,1.10
2022-08-14T21:55:00.202Z,1.00
2022-08-14T21:58:54.351Z,1.10
2022-08-14T22:01:23.825Z,0.80
2022-08-14T22:04:32.715Z,0.73
2022-08-14T22:10:44.735Z,0.93
2022-08-14T22:13:48.867Z,0.98
2022-08-14T22:17:01.687Z,0.90
2022-08-14T22:20:32.473Z,1.00
2022-08-14T22:23:35.578Z,0.90
2022-08-14T22:26:41.832Z,0.82
2022-08-14T22:29:46.364Z,0.60
2022-08-14T22:32:58.425Z,1.00
2022-08-14T22:36:25.523Z,0.60
2022-08-14T22:40:17.631Z,0.70
2022-08-14T22:42:57.466Z,0.80
2022-08-14T22:46:06.214Z,0.60
2022-08-14T22:50:31.743Z,1.05
2022-08-14T22:52:39.923Z,1.10
2022-08-14T22:55:41.439Z,0.80
2022-08-14T22:58:43.081Z,1.10
2022-08-14T23:01:58.363Z,0.70
2022-08-14T23:05:03.270Z,0.90
2022-08-14T23:08:44.087Z,1.02
2022-08-14T23:11:26.800Z,0.82
2022-08-14T23:14:30.690Z,0.80
2022-08-14T23:17:39.379Z,0.80
2022-08-14T23:20:42.401Z,1.00
2022-08-14T23:23:45.937Z,0.80
2022-08-14T23:26:53.612Z,0.90
2022-08-14T23:29:55.477Z,0.98
2022-08-14T23:32:57.080Z,1.20
2022-08-14T23:36:00.437Z,1.10
2022-08-14T23:39:07.302Z,0.93
2022-08-14T23:45:19.554Z,1.13
2022-08-14T23:48:40.318Z,1.20
2022-08-14T23:52:49.499Z,0.77
2022-08-14T23:55:11.312Z,0.82
2022-08-14T23:58:29.794Z,1.20
